sensor_id;sensor_type;location;lat;lon;timestamp;P1;durP1;ratioP1;P2;durP2;ratioP2
12218;SDS011;6172;42.646;23.344;2022-07-29T00:00:47;6.20;;;5.57;;
12218;SDS011;6172;42.646;23.344;2022-07-29T00:03:14;6.93;;;5.83;;
12218;SDS011;6172;42.646;23.344;2022-07-29T00:05:41;6.33;;;5.27;;
12218;SDS011;6172;42.646;23.344;2022-07-29T00:08:08;5.90;;;5.32;;
12218;SDS011;6172;42.646;23.344;2022-07-29T00:10:35;6.85;;;6.15;;
12218;SDS011;6172;42.646;23.344;2022-07-29T00:13:03;7.30;;;5.93;;
12218;SDS011;6172;42.646;23.344;2022-07-29T00:15:30;7.90;;;6.50;;
12218;SDS011;6172;42.646;23.344;2022-07-29T00:17:57;6.60;;;6.00;;
12218;SDS011;6172;42.646;23.344;2022-07-29T00:20:24;6.83;;;6.07;;
12218;SDS011;6172;42.646;23.344;2022-07-29T00:22:51;6.80;;;6.20;;
12218;SDS011;6172;42.646;23.344;2022-07-29T00:25:18;6.88;;;5.95;;
12218;SDS011;6172;42.646;23.344;2022-07-29T00:27:45;7.18;;;6.47;;
12218;SDS011;6172;42.646;23.344;2022-07-29T00:30:13;6.80;;;6.10;;
12218;SDS011;6172;42.646;23.344;2022-07-29T00:32:40;7.20;;;6.00;;
12218;SDS011;6172;42.646;23.344;2022-07-29T00:35:08;6.82;;;6.20;;
12218;SDS011;6172;42.646;23.344;2022-07-29T00:37:52;7.40;;;5.75;;
12218;SDS011;6172;42.646;23.344;2022-07-29T00:40:19;6.63;;;6.03;;
12218;SDS011;6172;42.646;23.344;2022-07-29T00:42:47;5.65;;;5.15;;
12218;SDS011;6172;42.646;23.344;2022-07-29T00:45:16;12.00;;;6.20;;
12218;SDS011;6172;42.646;23.344;2022-07-29T00:47:44;6.15;;;5.55;;
12218;SDS011;6172;42.646;23.344;2022-07-29T00:50:12;6.60;;;5.93;;
12218;SDS011;6172;42.646;23.344;2022-07-29T00:52:40;8.05;;;6.30;;
12218;SDS011;6172;42.646;23.344;2022-07-29T00:55:09;7.43;;;6.47;;
12218;SDS011;6172;42.646;23.344;2022-07-29T00:57:37;7.40;;;6.53;;
12218;SDS011;6172;42.646;23.344;2022-07-29T01:00:06;7.68;;;6.13;;
12218;SDS011;6172;42.646;23.344;2022-07-29T01:02:36;8.65;;;6.00;;
12218;SDS011;6172;42.646;23.344;2022-07-29T01:05:03;6.63;;;5.90;;
12218;SDS011;6172;42.646;23.344;2022-07-29T01:07:31;6.97;;;6.05;;
12218;SDS011;6172;42.646;23.344;2022-07-29T01:10:00;7.80;;;6.22;;
12218;SDS011;6172;42.646;23.344;2022-07-29T01:12:28;6.75;;;5.88;;
12218;SDS011;6172;42.646;23.344;2022-07-29T01:14:58;6.38;;;5.78;;
12218;SDS011;6172;42.646;23.344;2022-07-29T01:17:26;6.65;;;6.05;;
12218;SDS011;6172;42.646;23.344;2022-07-29T01:20:00;9.70;;;6.60;;
12218;SDS011;6172;42.646;23.344;2022-07-29T01:22:37;7.28;;;6.57;;
12218;SDS011;6172;42.646;23.344;2022-07-29T01:25:22;8.13;;;7.00;;
12218;SDS011;6172;42.646;23.344;2022-07-29T01:28:07;9.88;;;7.72;;
12218;SDS011;6172;42.646;23.344;2022-07-29T01:30:45;9.10;;;8.20;;
12218;SDS011;6172;42.646;23.344;2022-07-29T01:33:15;11.32;;;8.50;;
12218;SDS011;6172;42.646;23.344;2022-07-29T01:36:01;10.88;;;9.77;;
12218;SDS011;6172;42.646;23.344;2022-07-29T01:38:32;11.30;;;9.60;;
12218;SDS011;6172;42.646;23.344;2022-07-29T01:41:02;11.45;;;9.68;;
12218;SDS011;6172;42.646;23.344;2022-07-29T01:43:36;11.02;;;9.93;;
12218;SDS011;6172;42.646;23.344;2022-07-29T01:46:09;10.20;;;9.10;;
12218;SDS011;6172;42.646;23.344;2022-07-29T01:48:43;9.73;;;8.73;;
12218;SDS011;6172;42.646;23.344;2022-07-29T01:51:14;10.37;;;8.50;;
12218;SDS011;6172;42.646;23.344;2022-07-29T01:53:46;11.93;;;9.43;;
12218;SDS011;6172;42.646;23.344;2022-07-29T01:56:21;11.73;;;9.87;;
12218;SDS011;6172;42.646;23.344;2022-07-29T01:58:50;10.00;;;9.00;;
12218;SDS011;6172;42.646;23.344;2022-07-29T02:01:21;11.93;;;9.30;;
12218;SDS011;6172;42.646;23.344;2022-07-29T02:03:51;12.13;;;8.73;;
12218;SDS011;6172;42.646;23.344;2022-07-29T02:06:21;12.80;;;9.27;;
12218;SDS011;6172;42.646;23.344;2022-07-29T02:08:49;10.67;;;8.70;;
12218;SDS011;6172;42.646;23.344;2022-07-29T02:11:19;13.20;;;9.32;;
12218;SDS011;6172;42.646;23.344;2022-07-29T02:13:46;10.25;;;9.25;;
12218;SDS011;6172;42.646;23.344;2022-07-29T02:16:15;9.15;;;8.25;;
12218;SDS011;6172;42.646;23.344;2022-07-29T02:18:49;9.43;;;8.38;;
12218;SDS011;6172;42.646;23.344;2022-07-29T02:21:20;8.60;;;7.80;;
12218;SDS011;6172;42.646;23.344;2022-07-29T02:23:49;10.65;;;8.23;;
12218;SDS011;6172;42.646;23.344;2022-07-29T02:26:19;8.93;;;8.02;;
12218;SDS011;6172;42.646;23.344;2022-07-29T02:28:49;11.70;;;9.00;;
12218;SDS011;6172;42.646;23.344;2022-07-29T02:31:18;9.85;;;8.52;;
12218;SDS011;6172;42.646;23.344;2022-07-29T02:33:50;10.13;;;8.97;;
12218;SDS011;6172;42.646;23.344;2022-07-29T02:36:19;12.88;;;9.10;;
12218;SDS011;6172;42.646;23.344;2022-07-29T02:38:48;11.07;;;9.40;;
12218;SDS011;6172;42.646;23.344;2022-07-29T02:41:18;11.77;;;10.47;;
12218;SDS011;6172;42.646;23.344;2022-07-29T02:43:50;10.90;;;9.77;;
12218;SDS011;6172;42.646;23.344;2022-07-29T02:46:24;14.50;;;10.10;;
12218;SDS011;6172;42.646;23.344;2022-07-29T02:48:58;10.55;;;8.88;;
12218;SDS011;6172;42.646;23.344;2022-07-29T02:51:28;11.37;;;8.03;;
12218;SDS011;6172;42.646;23.344;2022-07-29T02:54:04;9.67;;;8.67;;
12218;SDS011;6172;42.646;23.344;2022-07-29T02:56:34;10.73;;;7.43;;
12218;SDS011;6172;42.646;23.344;2022-07-29T02:59:04;10.80;;;7.73;;
12218;SDS011;6172;42.646;23.344;2022-07-29T03:01:35;9.47;;;6.40;;
12218;SDS011;6172;42.646;23.344;2022-07-29T03:04:08;8.30;;;7.20;;
12218;SDS011;6172;42.646;23.344;2022-07-29T03:06:37;9.27;;;6.57;;
12218;SDS011;6172;42.646;23.344;2022-07-29T03:09:06;8.87;;;6.83;;
12218;SDS011;6172;42.646;23.344;2022-07-29T03:11:37;9.73;;;7.03;;
12218;SDS011;6172;42.646;23.344;2022-07-29T03:14:05;7.60;;;6.60;;
12218;SDS011;6172;42.646;23.344;2022-07-29T03:16:32;11.10;;;5.80;;
12218;SDS011;6172;42.646;23.344;2022-07-29T03:19:01;7.63;;;6.37;;
12218;SDS011;6172;42.646;23.344;2022-07-29T03:21:30;9.27;;;6.70;;
12218;SDS011;6172;42.646;23.344;2022-07-29T03:23:57;8.00;;;6.40;;
12218;SDS011;6172;42.646;23.344;2022-07-29T03:26:24;19.60;;;8.63;;
12218;SDS011;6172;42.646;23.344;2022-07-29T03:28:52;13.83;;;8.03;;
12218;SDS011;6172;42.646;23.344;2022-07-29T03:31:18;22.97;;;8.53;;
12218;SDS011;6172;42.646;23.344;2022-07-29T03:33:45;11.67;;;7.53;;
12218;SDS011;6172;42.646;23.344;2022-07-29T03:36:12;11.63;;;7.50;;
12218;SDS011;6172;42.646;23.344;2022-07-29T03:38:41;15.07;;;8.00;;
12218;SDS011;6172;42.646;23.344;2022-07-29T03:41:10;15.07;;;8.40;;
12218;SDS011;6172;42.646;23.344;2022-07-29T03:43:39;8.83;;;7.70;;
12218;SDS011;6172;42.646;23.344;2022-07-29T03:46:09;9.80;;;7.37;;
12218;SDS011;6172;42.646;23.344;2022-07-29T03:48:39;9.38;;;7.13;;
12218;SDS011;6172;42.646;23.344;2022-07-29T03:51:12;8.77;;;7.07;;
12218;SDS011;6172;42.646;23.344;2022-07-29T03:53:41;8.77;;;6.10;;
12218;SDS011;6172;42.646;23.344;2022-07-29T03:56:09;8.10;;;6.50;;
12218;SDS011;6172;42.646;23.344;2022-07-29T03:58:38;10.18;;;6.50;;
12218;SDS011;6172;42.646;23.344;2022-07-29T04:01:05;7.47;;;6.40;;
12218;SDS011;6172;42.646;23.344;2022-07-29T04:03:33;11.63;;;6.87;;
12218;SDS011;6172;42.646;23.344;2022-07-29T04:06:01;10.07;;;6.50;;
12218;SDS011;6172;42.646;23.344;2022-07-29T04:08:28;7.53;;;6.27;;
12218;SDS011;6172;42.646;23.344;2022-07-29T04:10:57;9.00;;;7.03;;
12218;SDS011;6172;42.646;23.344;2022-07-29T04:13:23;8.75;;;6.65;;
12218;SDS011;6172;42.646;23.344;2022-07-29T04:15:51;10.50;;;7.75;;
12218;SDS011;6172;42.646;23.344;2022-07-29T04:18:18;9.67;;;8.67;;
12218;SDS011;6172;42.646;23.344;2022-07-29T04:20:48;11.60;;;8.80;;
12218;SDS011;6172;42.646;23.344;2022-07-29T04:23:15;11.13;;;8.00;;
12218;SDS011;6172;42.646;23.344;2022-07-29T04:25:42;9.07;;;7.23;;
12218;SDS011;6172;42.646;23.344;2022-07-29T04:28:10;11.20;;;8.60;;
12218;SDS011;6172;42.646;23.344;2022-07-29T04:30:37;10.10;;;7.23;;
12218;SDS011;6172;42.646;23.344;2022-07-29T04:33:05;11.60;;;6.73;;
12218;SDS011;6172;42.646;23.344;2022-07-29T04:35:33;8.23;;;6.13;;
12218;SDS011;6172;42.646;23.344;2022-07-29T04:38:01;10.43;;;7.10;;
12218;SDS011;6172;42.646;23.344;2022-07-29T04:40:29;13.02;;;7.47;;
12218;SDS011;6172;42.646;23.344;2022-07-29T04:42:58;11.20;;;6.70;;
12218;SDS011;6172;42.646;23.344;2022-07-29T04:45:26;8.45;;;6.85;;
12218;SDS011;6172;42.646;23.344;2022-07-29T04:47:54;8.65;;;6.15;;
12218;SDS011;6172;42.646;23.344;2022-07-29T04:50:20;9.38;;;5.88;;
12218;SDS011;6172;42.646;23.344;2022-07-29T04:52:47;6.88;;;6.18;;
12218;SDS011;6172;42.646;23.344;2022-07-29T04:55:14;7.72;;;5.32;;
12218;SDS011;6172;42.646;23.344;2022-07-29T04:57:41;8.23;;;5.00;;
12218;SDS011;6172;42.646;23.344;2022-07-29T05:00:08;5.93;;;5.35;;
12218;SDS011;6172;42.646;23.344;2022-07-29T05:02:37;10.73;;;5.80;;
12218;SDS011;6172;42.646;23.344;2022-07-29T05:05:04;6.13;;;5.60;;
12218;SDS011;6172;42.646;23.344;2022-07-29T05:07:32;9.52;;;6.35;;
12218;SDS011;6172;42.646;23.344;2022-07-29T05:09:59;9.88;;;5.63;;
12218;SDS011;6172;42.646;23.344;2022-07-29T05:12:26;7.10;;;4.95;;
12218;SDS011;6172;42.646;23.344;2022-07-29T05:14:53;6.28;;;5.25;;
12218;SDS011;6172;42.646;23.344;2022-07-29T05:17:20;5.97;;;5.18;;
12218;SDS011;6172;42.646;23.344;2022-07-29T05:19:48;8.80;;;5.90;;
12218;SDS011;6172;42.646;23.344;2022-07-29T05:22:16;7.30;;;4.80;;
12218;SDS011;6172;42.646;23.344;2022-07-29T05:24:43;5.22;;;4.72;;
12218;SDS011;6172;42.646;23.344;2022-07-29T05:27:10;11.13;;;5.47;;
12218;SDS011;6172;42.646;23.344;2022-07-29T05:29:37;6.38;;;5.32;;
12218;SDS011;6172;42.646;23.344;2022-07-29T05:32:04;6.15;;;5.55;;
12218;SDS011;6172;42.646;23.344;2022-07-29T05:34:31;5.60;;;5.20;;
12218;SDS011;6172;42.646;23.344;2022-07-29T05:37:00;7.30;;;5.07;;
12218;SDS011;6172;42.646;23.344;2022-07-29T05:39:27;6.97;;;4.85;;
12218;SDS011;6172;42.646;23.344;2022-07-29T05:41:55;6.50;;;5.90;;
12218;SDS011;6172;42.646;23.344;2022-07-29T05:44:22;6.25;;;5.10;;
12218;SDS011;6172;42.646;23.344;2022-07-29T05:46:49;6.70;;;5.07;;
12218;SDS011;6172;42.646;23.344;2022-07-29T05:49:16;7.47;;;5.18;;
12218;SDS011;6172;42.646;23.344;2022-07-29T05:51:43;7.93;;;4.72;;
12218;SDS011;6172;42.646;23.344;2022-07-29T05:54:12;6.60;;;5.05;;
12218;SDS011;6172;42.646;23.344;2022-07-29T05:56:39;10.13;;;5.15;;
12218;SDS011;6172;42.646;23.344;2022-07-29T05:59:06;5.22;;;4.72;;
12218;SDS011;6172;42.646;23.344;2022-07-29T06:01:33;8.90;;;5.65;;
12218;SDS011;6172;42.646;23.344;2022-07-29T06:04:04;8.88;;;5.47;;
12218;SDS011;6172;42.646;23.344;2022-07-29T06:06:31;6.70;;;5.20;;
12218;SDS011;6172;42.646;23.344;2022-07-29T06:08:58;5.80;;;5.30;;
12218;SDS011;6172;42.646;23.344;2022-07-29T06:11:27;6.68;;;4.60;;
12218;SDS011;6172;42.646;23.344;2022-07-29T06:13:54;5.68;;;5.22;;
12218;SDS011;6172;42.646;23.344;2022-07-29T06:16:21;12.55;;;8.20;;
12218;SDS011;6172;42.646;23.344;2022-07-29T06:18:48;9.93;;;6.75;;
12218;SDS011;6172;42.646;23.344;2022-07-29T06:21:15;18.85;;;10.68;;
12218;SDS011;6172;42.646;23.344;2022-07-29T06:23:41;4.57;;;4.20;;
12218;SDS011;6172;42.646;23.344;2022-07-29T06:26:08;7.75;;;4.55;;
12218;SDS011;6172;42.646;23.344;2022-07-29T06:28:37;6.55;;;4.45;;
12218;SDS011;6172;42.646;23.344;2022-07-29T06:31:05;5.70;;;4.18;;
12218;SDS011;6172;42.646;23.344;2022-07-29T06:33:32;5.57;;;3.95;;
12218;SDS011;6172;42.646;23.344;2022-07-29T06:35:59;7.47;;;4.30;;
12218;SDS011;6172;42.646;23.344;2022-07-29T06:38:26;6.05;;;4.70;;
12218;SDS011;6172;42.646;23.344;2022-07-29T06:40:53;7.57;;;4.97;;
12218;SDS011;6172;42.646;23.344;2022-07-29T06:43:27;6.18;;;4.65;;
12218;SDS011;6172;42.646;23.344;2022-07-29T06:45:59;7.80;;;4.75;;
12218;SDS011;6172;42.646;23.344;2022-07-29T06:48:29;6.47;;;4.00;;
12218;SDS011;6172;42.646;23.344;2022-07-29T06:50:57;7.05;;;4.57;;
12218;SDS011;6172;42.646;23.344;2022-07-29T06:53:24;5.60;;;5.05;;
12218;SDS011;6172;42.646;23.344;2022-07-29T06:55:51;6.18;;;5.22;;
12218;SDS011;6172;42.646;23.344;2022-07-29T06:58:18;7.32;;;5.10;;
12218;SDS011;6172;42.646;23.344;2022-07-29T07:00:45;6.65;;;5.00;;
12218;SDS011;6172;42.646;23.344;2022-07-29T07:03:14;6.25;;;4.80;;
12218;SDS011;6172;42.646;23.344;2022-07-29T07:05:42;6.85;;;4.90;;
12218;SDS011;6172;42.646;23.344;2022-07-29T07:08:09;5.28;;;4.50;;
12218;SDS011;6172;42.646;23.344;2022-07-29T07:10:36;5.68;;;4.10;;
12218;SDS011;6172;42.646;23.344;2022-07-29T07:13:03;5.80;;;4.25;;
12218;SDS011;6172;42.646;23.344;2022-07-29T07:15:30;4.80;;;4.20;;
12218;SDS011;6172;42.646;23.344;2022-07-29T07:17:57;5.88;;;4.78;;
12218;SDS011;6172;42.646;23.344;2022-07-29T07:20:26;6.20;;;4.25;;
12218;SDS011;6172;42.646;23.344;2022-07-29T07:22:53;4.88;;;3.85;;
12218;SDS011;6172;42.646;23.344;2022-07-29T07:25:20;3.72;;;3.45;;
12218;SDS011;6172;42.646;23.344;2022-07-29T07:27:47;4.68;;;3.40;;
12218;SDS011;6172;42.646;23.344;2022-07-29T07:30:14;4.57;;;3.45;;
12218;SDS011;6172;42.646;23.344;2022-07-29T07:32:40;3.58;;;3.33;;
12218;SDS011;6172;42.646;23.344;2022-07-29T07:35:08;3.20;;;3.00;;
12218;SDS011;6172;42.646;23.344;2022-07-29T07:37:37;4.20;;;3.15;;
12218;SDS011;6172;42.646;23.344;2022-07-29T07:40:06;4.35;;;3.50;;
12218;SDS011;6172;42.646;23.344;2022-07-29T07:42:36;5.47;;;2.92;;
12218;SDS011;6172;42.646;23.344;2022-07-29T07:45:04;3.28;;;3.08;;
12218;SDS011;6172;42.646;23.344;2022-07-29T07:47:34;3.05;;;2.85;;
12218;SDS011;6172;42.646;23.344;2022-07-29T07:50:01;3.08;;;2.78;;
12218;SDS011;6172;42.646;23.344;2022-07-29T07:52:28;4.32;;;2.70;;
12218;SDS011;6172;42.646;23.344;2022-07-29T07:54:57;2.92;;;2.72;;
12218;SDS011;6172;42.646;23.344;2022-07-29T07:57:24;2.92;;;2.60;;
12218;SDS011;6172;42.646;23.344;2022-07-29T07:59:51;3.40;;;2.33;;
12218;SDS011;6172;42.646;23.344;2022-07-29T08:02:17;4.30;;;2.45;;
12218;SDS011;6172;42.646;23.344;2022-07-29T08:04:44;3.20;;;2.90;;
12218;SDS011;6172;42.646;23.344;2022-07-29T08:07:11;3.00;;;2.80;;
12218;SDS011;6172;42.646;23.344;2022-07-29T08:09:39;3.55;;;2.63;;
12218;SDS011;6172;42.646;23.344;2022-07-29T08:12:08;3.05;;;2.85;;
12218;SDS011;6172;42.646;23.344;2022-07-29T08:14:35;3.80;;;2.72;;
12218;SDS011;6172;42.646;23.344;2022-07-29T08:17:02;10.38;;;3.25;;
12218;SDS011;6172;42.646;23.344;2022-07-29T08:19:29;3.08;;;2.78;;
12218;SDS011;6172;42.646;23.344;2022-07-29T08:21:56;4.93;;;2.97;;
12218;SDS011;6172;42.646;23.344;2022-07-29T08:24:22;4.25;;;2.63;;
12218;SDS011;6172;42.646;23.344;2022-07-29T08:27:08;4.05;;;2.13;;
12218;SDS011;6172;42.646;23.344;2022-07-29T08:29:36;4.25;;;2.92;;
12218;SDS011;6172;42.646;23.344;2022-07-29T08:32:03;3.13;;;2.45;;
12218;SDS011;6172;42.646;23.344;2022-07-29T08:34:30;3.05;;;2.67;;
12218;SDS011;6172;42.646;23.344;2022-07-29T08:36:58;3.83;;;2.20;;
12218;SDS011;6172;42.646;23.344;2022-07-29T08:39:25;3.17;;;2.60;;
12218;SDS011;6172;42.646;23.344;2022-07-29T08:41:52;3.25;;;2.40;;
12218;SDS011;6172;42.646;23.344;2022-07-29T08:44:21;4.47;;;2.83;;
12218;SDS011;6172;42.646;23.344;2022-07-29T08:46:48;6.55;;;3.30;;
12218;SDS011;6172;42.646;23.344;2022-07-29T08:49:15;3.72;;;3.42;;
12218;SDS011;6172;42.646;23.344;2022-07-29T08:51:42;3.20;;;2.90;;
12218;SDS011;6172;42.646;23.344;2022-07-29T08:54:10;4.47;;;2.42;;
12218;SDS011;6172;42.646;23.344;2022-07-29T08:56:42;2.65;;;1.98;;
12218;SDS011;6172;42.646;23.344;2022-07-29T08:59:09;3.38;;;2.85;;
12218;SDS011;6172;42.646;23.344;2022-07-29T09:01:38;2.80;;;2.63;;
12218;SDS011;6172;42.646;23.344;2022-07-29T09:04:10;3.03;;;2.78;;
12218;SDS011;6172;42.646;23.344;2022-07-29T09:06:40;3.03;;;2.40;;
12218;SDS011;6172;42.646;23.344;2022-07-29T09:09:10;3.97;;;2.47;;
12218;SDS011;6172;42.646;23.344;2022-07-29T09:11:38;2.88;;;2.53;;
12218;SDS011;6172;42.646;23.344;2022-07-29T09:14:06;2.35;;;2.20;;
12218;SDS011;6172;42.646;23.344;2022-07-29T09:16:54;3.10;;;2.80;;
12218;SDS011;6172;42.646;23.344;2022-07-29T09:19:23;3.55;;;3.25;;
12218;SDS011;6172;42.646;23.344;2022-07-29T09:21:52;3.88;;;2.63;;
12218;SDS011;6172;42.646;23.344;2022-07-29T09:27:08;3.38;;;3.08;;
12218;SDS011;6172;42.646;23.344;2022-07-29T09:29:47;3.65;;;3.35;;
12218;SDS011;6172;42.646;23.344;2022-07-29T09:32:23;3.50;;;3.20;;
12218;SDS011;6172;42.646;23.344;2022-07-29T09:34:50;3.80;;;3.05;;
12218;SDS011;6172;42.646;23.344;2022-07-29T09:37:25;3.47;;;2.92;;
12218;SDS011;6172;42.646;23.344;2022-07-29T09:39:53;3.20;;;2.90;;
12218;SDS011;6172;42.646;23.344;2022-07-29T09:42:27;3.63;;;3.30;;
12218;SDS011;6172;42.646;23.344;2022-07-29T09:44:54;4.53;;;2.97;;
12218;SDS011;6172;42.646;23.344;2022-07-29T09:47:27;3.53;;;3.20;;
12218;SDS011;6172;42.646;23.344;2022-07-29T09:50:09;6.05;;;3.50;;
12218;SDS011;6172;42.646;23.344;2022-07-29T09:52:44;4.05;;;3.30;;
12218;SDS011;6172;42.646;23.344;2022-07-29T09:55:13;5.22;;;3.58;;
12218;SDS011;6172;42.646;23.344;2022-07-29T09:57:40;3.97;;;3.40;;
12218;SDS011;6172;42.646;23.344;2022-07-29T10:00:09;3.55;;;3.22;;
12218;SDS011;6172;42.646;23.344;2022-07-29T10:02:39;3.40;;;3.10;;
12218;SDS011;6172;42.646;23.344;2022-07-29T10:05:16;3.55;;;3.35;;
12218;SDS011;6172;42.646;23.344;2022-07-29T10:07:45;3.95;;;3.67;;
12218;SDS011;6172;42.646;23.344;2022-07-29T10:10:18;4.13;;;3.72;;
12218;SDS011;6172;42.646;23.344;2022-07-29T10:12:50;4.18;;;3.70;;
12218;SDS011;6172;42.646;23.344;2022-07-29T10:15:18;3.88;;;3.58;;
12218;SDS011;6172;42.646;23.344;2022-07-29T10:17:49;4.72;;;4.15;;
12218;SDS011;6172;42.646;23.344;2022-07-29T10:20:16;5.45;;;4.22;;
12218;SDS011;6172;42.646;23.344;2022-07-29T10:22:44;3.70;;;3.45;;
12218;SDS011;6172;42.646;23.344;2022-07-29T10:25:12;5.93;;;4.47;;
12218;SDS011;6172;42.646;23.344;2022-07-29T10:27:40;5.53;;;4.95;;
12218;SDS011;6172;42.646;23.344;2022-07-29T10:30:07;7.03;;;4.90;;
12218;SDS011;6172;42.646;23.344;2022-07-29T10:32:42;6.43;;;4.57;;
12218;SDS011;6172;42.646;23.344;2022-07-29T10:38:32;4.93;;;4.53;;
12218;SDS011;6172;42.646;23.344;2022-07-29T10:41:28;7.43;;;4.30;;
12218;SDS011;6172;42.646;23.344;2022-07-29T10:44:09;4.55;;;4.15;;
12218;SDS011;6172;42.646;23.344;2022-07-29T10:46:40;4.30;;;3.97;;
12218;SDS011;6172;42.646;23.344;2022-07-29T10:49:11;3.60;;;3.40;;
12218;SDS011;6172;42.646;23.344;2022-07-29T10:54:46;3.67;;;3.38;;
12218;SDS011;6172;42.646;23.344;2022-07-29T10:57:18;4.70;;;4.30;;
12218;SDS011;6172;42.646;23.344;2022-07-29T10:59:48;3.88;;;3.58;;
12218;SDS011;6172;42.646;23.344;2022-07-29T11:05:11;3.60;;;3.38;;
12218;SDS011;6172;42.646;23.344;2022-07-29T11:10:46;3.38;;;3.17;;
12218;SDS011;6172;42.646;23.344;2022-07-29T11:16:15;3.83;;;3.20;;
12218;SDS011;6172;42.646;23.344;2022-07-29T11:21:49;3.55;;;3.25;;
12218;SDS011;6172;42.646;23.344;2022-07-29T11:24:18;3.38;;;3.10;;
12218;SDS011;6172;42.646;23.344;2022-07-29T11:29:39;3.60;;;3.35;;
12218;SDS011;6172;42.646;23.344;2022-07-29T11:32:14;4.07;;;3.65;;
12218;SDS011;6172;42.646;23.344;2022-07-29T11:34:44;3.42;;;3.13;;
12218;SDS011;6172;42.646;23.344;2022-07-29T11:37:20;3.45;;;3.25;;
12218;SDS011;6172;42.646;23.344;2022-07-29T11:42:37;3.30;;;3.00;;
12218;SDS011;6172;42.646;23.344;2022-07-29T11:45:06;3.20;;;3.00;;
12218;SDS011;6172;42.646;23.344;2022-07-29T11:47:48;3.53;;;3.10;;
12218;SDS011;6172;42.646;23.344;2022-07-29T11:50:28;4.00;;;3.63;;
12218;SDS011;6172;42.646;23.344;2022-07-29T11:53:03;3.88;;;3.42;;
12218;SDS011;6172;42.646;23.344;2022-07-29T11:55:37;3.17;;;2.88;;
12218;SDS011;6172;42.646;23.344;2022-07-29T11:58:08;3.60;;;3.30;;
12218;SDS011;6172;42.646;23.344;2022-07-29T12:00:36;3.35;;;3.05;;
12218;SDS011;6172;42.646;23.344;2022-07-29T12:03:04;3.88;;;3.58;;
12218;SDS011;6172;42.646;23.344;2022-07-29T12:05:34;5.50;;;3.50;;
12218;SDS011;6172;42.646;23.344;2022-07-29T12:10:51;3.65;;;3.13;;
12218;SDS011;6172;42.646;23.344;2022-07-29T12:13:19;4.10;;;3.70;;
12218;SDS011;6172;42.646;23.344;2022-07-29T12:15:53;5.43;;;3.40;;
12218;SDS011;6172;42.646;23.344;2022-07-29T12:18:22;3.75;;;3.45;;
12218;SDS011;6172;42.646;23.344;2022-07-29T12:20:56;3.65;;;3.35;;
12218;SDS011;6172;42.646;23.344;2022-07-29T12:23:26;3.63;;;3.42;;
12218;SDS011;6172;42.646;23.344;2022-07-29T12:25:55;4.00;;;3.70;;
12218;SDS011;6172;42.646;23.344;2022-07-29T12:28:25;4.45;;;4.15;;
12218;SDS011;6172;42.646;23.344;2022-07-29T12:30:56;4.95;;;4.55;;
12218;SDS011;6172;42.646;23.344;2022-07-29T12:33:24;4.40;;;4.00;;
12218;SDS011;6172;42.646;23.344;2022-07-29T12:35:55;4.65;;;4.25;;
12218;SDS011;6172;42.646;23.344;2022-07-29T12:38:29;4.28;;;3.97;;
12218;SDS011;6172;42.646;23.344;2022-07-29T12:40:57;4.20;;;3.90;;
12218;SDS011;6172;42.646;23.344;2022-07-29T12:43:24;3.80;;;3.45;;
12218;SDS011;6172;42.646;23.344;2022-07-29T12:45:52;4.72;;;4.20;;
12218;SDS011;6172;42.646;23.344;2022-07-29T12:48:32;4.25;;;3.95;;
12218;SDS011;6172;42.646;23.344;2022-07-29T12:51:00;4.38;;;4.07;;
12218;SDS011;6172;42.646;23.344;2022-07-29T12:53:29;4.13;;;3.75;;
12218;SDS011;6172;42.646;23.344;2022-07-29T12:55:56;5.03;;;4.38;;
12218;SDS011;6172;42.646;23.344;2022-07-29T12:58:31;4.75;;;4.30;;
12218;SDS011;6172;42.646;23.344;2022-07-29T13:01:01;4.45;;;4.15;;
12218;SDS011;6172;42.646;23.344;2022-07-29T13:03:49;5.38;;;3.40;;
12218;SDS011;6172;42.646;23.344;2022-07-29T13:06:31;4.43;;;4.13;;
12218;SDS011;6172;42.646;23.344;2022-07-29T13:09:02;4.32;;;4.03;;
12218;SDS011;6172;42.646;23.344;2022-07-29T13:11:36;7.70;;;4.38;;
12218;SDS011;6172;42.646;23.344;2022-07-29T13:14:04;3.85;;;3.65;;
12218;SDS011;6172;42.646;23.344;2022-07-29T13:16:31;4.25;;;3.95;;
12218;SDS011;6172;42.646;23.344;2022-07-29T13:19:06;3.83;;;3.60;;
12218;SDS011;6172;42.646;23.344;2022-07-29T13:21:36;4.50;;;4.10;;
12218;SDS011;6172;42.646;23.344;2022-07-29T13:24:05;4.38;;;4.13;;
12218;SDS011;6172;42.646;23.344;2022-07-29T13:26:33;4.60;;;4.20;;
12218;SDS011;6172;42.646;23.344;2022-07-29T13:29:01;4.10;;;3.90;;
12218;SDS011;6172;42.646;23.344;2022-07-29T13:31:28;4.68;;;4.07;;
12218;SDS011;6172;42.646;23.344;2022-07-29T13:33:55;4.28;;;3.88;;
12218;SDS011;6172;42.646;23.344;2022-07-29T13:36:22;4.15;;;3.60;;
12218;SDS011;6172;42.646;23.344;2022-07-29T13:38:49;4.22;;;3.92;;
12218;SDS011;6172;42.646;23.344;2022-07-29T13:41:18;4.30;;;4.10;;
12218;SDS011;6172;42.646;23.344;2022-07-29T13:43:44;4.40;;;4.00;;
12218;SDS011;6172;42.646;23.344;2022-07-29T13:46:11;5.03;;;4.63;;
12218;SDS011;6172;42.646;23.344;2022-07-29T13:48:38;4.75;;;4.32;;
12218;SDS011;6172;42.646;23.344;2022-07-29T13:51:05;4.85;;;4.07;;
12218;SDS011;6172;42.646;23.344;2022-07-29T13:53:32;4.53;;;4.10;;
12218;SDS011;6172;42.646;23.344;2022-07-29T13:56:00;4.22;;;3.92;;
12218;SDS011;6172;42.646;23.344;2022-07-29T13:58:29;4.72;;;4.22;;
12218;SDS011;6172;42.646;23.344;2022-07-29T14:00:56;4.40;;;4.00;;
12218;SDS011;6172;42.646;23.344;2022-07-29T14:03:23;4.50;;;4.20;;
12218;SDS011;6172;42.646;23.344;2022-07-29T14:05:50;5.18;;;4.07;;
12218;SDS011;6172;42.646;23.344;2022-07-29T14:08:16;3.88;;;3.67;;
12218;SDS011;6172;42.646;23.344;2022-07-29T14:10:44;4.97;;;4.53;;
12218;SDS011;6172;42.646;23.344;2022-07-29T14:13:11;3.90;;;3.70;;
12218;SDS011;6172;42.646;23.344;2022-07-29T14:15:39;4.68;;;3.88;;
12218;SDS011;6172;42.646;23.344;2022-07-29T14:18:06;4.00;;;3.70;;
12218;SDS011;6172;42.646;23.344;2022-07-29T14:20:33;4.20;;;3.90;;
12218;SDS011;6172;42.646;23.344;2022-07-29T14:23:00;4.57;;;3.95;;
12218;SDS011;6172;42.646;23.344;2022-07-29T14:25:27;4.53;;;4.07;;
12218;SDS011;6172;42.646;23.344;2022-07-29T14:27:54;4.30;;;3.90;;
12218;SDS011;6172;42.646;23.344;2022-07-29T14:30:22;4.20;;;3.88;;
12218;SDS011;6172;42.646;23.344;2022-07-29T14:32:50;4.38;;;3.95;;
12218;SDS011;6172;42.646;23.344;2022-07-29T14:35:17;5.72;;;4.18;;
12218;SDS011;6172;42.646;23.344;2022-07-29T14:37:44;4.72;;;4.32;;
12218;SDS011;6172;42.646;23.344;2022-07-29T14:40:11;4.72;;;4.28;;
12218;SDS011;6172;42.646;23.344;2022-07-29T14:42:38;4.05;;;3.70;;
12218;SDS011;6172;42.646;23.344;2022-07-29T14:45:06;4.85;;;4.45;;
12218;SDS011;6172;42.646;23.344;2022-07-29T14:47:35;4.65;;;4.20;;
12218;SDS011;6172;42.646;23.344;2022-07-29T14:50:04;4.18;;;3.88;;
12218;SDS011;6172;42.646;23.344;2022-07-29T14:52:32;4.82;;;4.13;;
12218;SDS011;6172;42.646;23.344;2022-07-29T14:55:02;6.30;;;4.20;;
12218;SDS011;6172;42.646;23.344;2022-07-29T14:57:30;4.50;;;4.15;;
12218;SDS011;6172;42.646;23.344;2022-07-29T14:59:57;4.10;;;3.75;;
12218;SDS011;6172;42.646;23.344;2022-07-29T15:02:23;3.47;;;3.28;;
12218;SDS011;6172;42.646;23.344;2022-07-29T15:04:50;4.43;;;4.03;;
12218;SDS011;6172;42.646;23.344;2022-07-29T15:07:19;4.13;;;3.83;;
12218;SDS011;6172;42.646;23.344;2022-07-29T15:09:45;4.28;;;3.97;;
12218;SDS011;6172;42.646;23.344;2022-07-29T15:12:12;4.68;;;3.90;;
12218;SDS011;6172;42.646;23.344;2022-07-29T15:14:39;5.18;;;4.68;;
12218;SDS011;6172;42.646;23.344;2022-07-29T15:17:06;5.18;;;4.15;;
12218;SDS011;6172;42.646;23.344;2022-07-29T15:19:33;4.25;;;3.90;;
12218;SDS011;6172;42.646;23.344;2022-07-29T15:22:00;4.20;;;3.90;;
12218;SDS011;6172;42.646;23.344;2022-07-29T15:24:28;4.70;;;4.30;;
12218;SDS011;6172;42.646;23.344;2022-07-29T15:26:56;4.50;;;4.05;;